Time;durP1;ratioP1;P1;durP2;ratioP2;P2;SDS_P1;SDS_P2;PMS_P1;PMS_P2;Temp;Humidity;BMP_temperature;BMP_pressure;BME280_temperature;BME280_humidity;BME280_pressure;Samples;Min_cycle;Max_cycle;Signal;HPM_P1;HPM_P2
2022/11/22 00:00:32;;;;;;;49.57;23.10;;;4.30;99.10;;;;;;5088914;28;20200;-73
2022/11/22 00:03:00;;;;;;;41.33;20.13;;;4.30;99.10;;;;;;5081210;28;20255;-73
2022/11/22 00:05:27;;;;;;;34.60;17.13;;;4.30;99.20;;;;;;5083074;28;20233;-73
2022/11/22 00:07:54;;;;;;;43.93;19.07;;;4.30;99.20;;;;;;5059027;28;20283;-73
2022/11/22 00:10:21;;;;;;;42.93;19.80;;;4.30;99.10;;;;;;5064606;28;20286;-73
2022/11/22 00:12:48;;;;;;;38.37;18.07;;;4.40;99.20;;;;;;5089874;28;20240;-73
2022/11/22 00:15:15;;;;;;;35.97;16.00;;;4.40;99.10;;;;;;5062574;28;20192;-72
2022/11/22 00:17:42;;;;;;;34.27;16.47;;;4.40;99.10;;;;;;5063682;28;20235;-72
2022/11/22 00:20:12;;;;;;;24.03;12.40;;;4.50;99.10;;;;;;5084181;28;20189;-72
2022/11/22 00:22:39;;;;;;;35.37;16.33;;;4.40;99.00;;;;;;5080994;28;20288;-72
2022/11/22 00:25:07;;;;;;;31.97;15.37;;;4.40;99.00;;;;;;5078959;28;20659;-72
2022/11/22 00:27:34;;;;;;;37.30;15.07;;;4.40;99.10;;;;;;5080854;28;20196;-72
2022/11/22 00:30:02;;;;;;;37.87;17.77;;;4.40;99.10;;;;;;5087089;28;20200;-72
2022/11/22 00:32:29;;;;;;;59.63;25.03;;;4.40;99.10;;;;;;5086511;28;20208;-73
2022/11/22 00:34:56;;;;;;;48.07;22.70;;;4.40;99.00;;;;;;5083848;28;20200;-72
2022/11/22 00:37:24;;;;;;;45.77;19.27;;;4.40;99.00;;;;;;5082119;28;20227;-72
2022/11/22 00:39:51;;;;;;;38.23;17.73;;;4.30;99.00;;;;;;5087171;28;20193;-72
2022/11/22 00:42:18;;;;;;;41.87;18.30;;;4.40;99.10;;;;;;5082508;28;20257;-72
2022/11/22 00:44:45;;;;;;;38.37;17.77;;;4.40;99.00;;;;;;5064110;28;20283;-72
2022/11/22 00:47:12;;;;;;;35.00;16.50;;;4.40;99.00;;;;;;5066272;28;20193;-72
2022/11/22 00:49:39;;;;;;;36.73;16.57;;;4.40;99.00;;;;;;5066593;28;20743;-72
2022/11/22 00:52:06;;;;;;;36.53;16.53;;;4.40;99.20;;;;;;5083531;28;20199;-72
2022/11/22 00:54:35;;;;;;;30.93;14.90;;;4.50;99.20;;;;;;5081596;28;20228;-72
2022/11/22 00:57:02;;;;;;;35.63;16.20;;;4.50;98.90;;;;;;5083717;28;20216;-72
2022/11/22 00:59:29;;;;;;;47.47;20.90;;;4.40;98.90;;;;;;5079314;28;20212;-72
2022/11/22 01:01:56;;;;;;;43.13;20.00;;;4.40;98.90;;;;;;5076146;28;20263;-73
2022/11/22 01:04:23;;;;;;;53.37;23.73;;;4.40;98.90;;;;;;5061358;28;20232;-72
2022/11/22 01:06:50;;;;;;;48.20;21.27;;;4.40;98.90;;;;;;5082001;28;20196;-72
2022/11/22 01:09:20;;;;;;;55.37;25.13;;;4.40;99.00;;;;;;5080893;28;20188;-72
2022/11/22 01:11:49;;;;;;;61.60;27.97;;;4.40;98.90;;;;;;5083266;28;20291;-72
2022/11/22 01:14:17;;;;;;;76.17;31.10;;;4.40;98.80;;;;;;5068049;28;20652;-72
2022/11/22 01:16:44;;;;;;;54.30;23.77;;;4.40;98.80;;;;;;5085070;28;20279;-73
2022/11/22 01:19:12;;;;;;;45.80;20.60;;;4.30;98.80;;;;;;5079246;28;20219;-72
2022/11/22 01:21:39;;;;;;;44.93;19.83;;;4.30;98.90;;;;;;5081097;28;20214;-73
2022/11/22 01:24:07;;;;;;;42.57;18.90;;;4.30;98.90;;;;;;5083000;28;20193;-73
2022/11/22 01:26:34;;;;;;;42.80;18.40;;;4.30;99.20;;;;;;5062985;28;20211;-73
2022/11/22 01:29:03;;;;;;;38.03;17.23;;;4.30;98.90;;;;;;5084338;28;20231;-72
2022/11/22 01:31:30;;;;;;;36.97;16.60;;;4.40;98.90;;;;;;5085541;28;20287;-73
2022/11/22 01:33:57;;;;;;;34.83;15.83;;;4.40;98.90;;;;;;5085264;28;20223;-73
2022/11/22 01:36:24;;;;;;;36.10;17.13;;;4.40;98.90;;;;;;5085836;28;20228;-73
2022/11/22 01:38:52;;;;;;;29.20;13.93;;;4.30;98.90;;;;;;5065302;28;20189;-73
2022/11/22 01:41:19;;;;;;;32.40;15.67;;;4.30;98.90;;;;;;5081209;28;20220;-72
2022/11/22 01:43:46;;;;;;;37.77;16.47;;;4.30;98.90;;;;;;5065180;28;20686;-73
2022/11/22 01:46:25;;;;;;;36.17;15.93;;;4.30;99.20;;;;;;5080055;28;20224;-73
2022/11/22 01:48:56;;;;;;;36.07;16.80;;;4.30;98.90;;;;;;5082542;28;20659;-72
2022/11/22 01:51:28;;;;;;;38.57;17.57;;;4.30;99.00;;;;;;5075260;28;20196;-72
2022/11/22 01:53:58;;;;;;;57.33;25.37;;;4.30;98.90;;;;;;5078666;28;20207;-72
2022/11/22 01:56:28;;;;;;;47.60;21.83;;;4.30;99.00;;;;;;5081154;28;20246;-73
2022/11/22 01:59:00;;;;;;;39.20;18.37;;;4.30;99.00;;;;;;5067933;28;20203;-73
2022/11/22 02:01:29;;;;;;;45.73;20.57;;;4.30;99.00;;;;;;5080070;28;20205;-73
2022/11/22 02:03:57;;;;;;;46.03;19.77;;;4.30;99.00;;;;;;5056166;28;20264;-72
2022/11/22 02:06:34;;;;;;;36.17;16.50;;;4.30;98.90;;;;;;5077377;28;20213;-72
2022/11/22 02:09:05;;;;;;;38.27;16.43;;;4.30;98.90;;;;;;5078832;28;20556;-72
2022/11/22 02:11:35;;;;;;;31.83;15.10;;;4.30;99.00;;;;;;5059310;28;20919;-72
2022/11/22 02:14:03;;;;;;;29.73;14.87;;;4.30;99.00;;;;;;5083643;28;20254;-73
2022/11/22 02:16:34;;;;;;;31.53;15.23;;;4.30;99.00;;;;;;5076552;28;20250;-72
2022/11/22 02:19:01;;;;;;;34.20;16.03;;;4.40;99.00;;;;;;5083454;28;20204;-72
2022/11/22 02:21:29;;;;;;;32.20;15.17;;;4.40;99.00;;;;;;5082439;28;20301;-72
2022/11/22 02:24:01;;;;;;;34.63;16.50;;;4.40;99.00;;;;;;5081704;28;20212;-72
2022/11/22 02:26:31;;;;;;;35.27;15.43;;;4.40;99.00;;;;;;5083996;28;20282;-72
2022/11/22 02:29:04;;;;;;;36.47;16.70;;;4.30;98.90;;;;;;5076733;28;20218;-72
2022/11/22 02:31:41;;;;;;;29.17;14.10;;;4.30;99.00;;;;;;5064140;28;20201;-72
2022/11/22 02:34:08;;;;;;;62.50;27.40;;;4.30;99.00;;;;;;5063380;28;20198;-72
2022/11/22 02:36:39;;;;;;;51.33;23.70;;;4.30;98.90;;;;;;5064635;28;20216;-72
2022/11/22 02:39:07;;;;;;;48.20;23.07;;;4.30;99.00;;;;;;5060179;28;20284;-73
2022/11/22 02:41:37;;;;;;;44.90;19.57;;;4.30;99.00;;;;;;5080102;28;20203;-72
2022/11/22 02:44:06;;;;;;;36.53;16.90;;;4.30;99.10;;;;;;5081618;28;20215;-72
2022/11/22 02:46:33;;;;;;;43.23;17.67;;;4.30;99.10;;;;;;5065027;28;20210;-73
2022/11/22 02:49:00;;;;;;;54.43;23.23;;;3.80;98.90;;;;;;5069419;28;20196;-73
2022/11/22 02:51:27;;;;;;;52.70;23.20;;;4.40;99.10;;;;;;5076582;28;20611;-74
2022/11/22 02:53:55;;;;;;;51.13;22.33;;;4.30;99.00;;;;;;5065806;28;20291;-73
2022/11/22 02:56:22;;;;;;;49.33;22.37;;;4.30;99.00;;;;;;5067043;28;20233;-72
2022/11/22 02:58:51;;;;;;;54.83;24.90;;;4.30;99.10;;;;;;5085612;28;20196;-72
2022/11/22 03:01:17;;;;;;;47.07;21.53;;;4.30;99.10;;;;;;5067827;28;20707;-73
2022/11/22 03:03:44;;;;;;;66.53;28.47;;;4.30;99.10;;;;;;5083522;28;20710;-72
2022/11/22 03:06:11;;;;;;;56.03;24.53;;;4.40;99.10;;;;;;5084168;28;20185;-73
2022/11/22 03:08:38;;;;;;;49.00;23.53;;;4.30;99.10;;;;;;5062993;28;20224;-72
2022/11/22 03:11:05;;;;;;;49.73;22.10;;;4.30;99.10;;;;;;5065362;28;20569;-72
2022/11/22 03:13:32;;;;;;;43.13;19.73;;;4.30;99.20;;;;;;5080318;28;20227;-72
2022/11/22 03:16:01;;;;;;;40.13;18.17;;;4.30;99.20;;;;;;5086068;28;20303;-72
2022/11/22 03:18:28;;;;;;;49.73;21.07;;;4.30;99.20;;;;;;5070391;28;20439;-72
2022/11/22 03:20:55;;;;;;;40.07;18.23;;;4.40;99.20;;;;;;5081584;28;20228;-72
2022/11/22 03:23:22;;;;;;;34.73;16.30;;;4.30;99.10;;;;;;5059915;28;20284;-72
2022/11/22 03:25:49;;;;;;;60.90;26.93;;;4.40;99.30;;;;;;5086778;28;20271;-72
2022/11/22 03:28:16;;;;;;;60.60;25.83;;;4.40;99.20;;;;;;5065485;28;20331;-72
2022/11/22 03:30:43;;;;;;;50.57;22.77;;;4.40;99.20;;;;;;5085190;28;20744;-72
2022/11/22 03:33:11;;;;;;;41.83;19.60;;;4.40;99.30;;;;;;5065426;28;20209;-72
2022/11/22 03:35:38;;;;;;;34.90;16.33;;;4.40;99.30;;;;;;5081312;28;20196;-72
2022/11/22 03:38:06;;;;;;;38.73;18.47;;;4.40;99.30;;;;;;5064962;28;20213;-72
2022/11/22 03:40:33;;;;;;;34.97;17.07;;;4.40;99.30;;;;;;5088773;28;20655;-73
2022/11/22 03:43:00;;;;;;;33.40;15.27;;;4.40;99.30;;;;;;5075946;28;20192;-72
2022/11/22 03:45:28;;;;;;;34.30;15.60;;;4.40;99.30;;;;;;5084884;28;20572;-72
2022/11/22 03:47:56;;;;;;;44.70;20.00;;;4.50;99.30;;;;;;5086132;28;20508;-72
2022/11/22 03:50:25;;;;;;;47.23;21.30;;;4.50;99.20;;;;;;5069752;28;20194;-72
2022/11/22 03:52:52;;;;;;;35.57;16.30;;;4.50;99.20;;;;;;5083206;28;20212;-72
2022/11/22 03:55:19;;;;;;;52.80;22.53;;;4.50;99.30;;;;;;5084310;28;20249;-72
2022/11/22 03:57:46;;;;;;;60.43;25.90;;;4.50;99.20;;;;;;5086696;28;20193;-73
2022/11/22 04:00:14;;;;;;;47.90;22.30;;;4.40;99.20;;;;;;5067955;28;20613;-73
2022/11/22 04:02:43;;;;;;;56.83;24.50;;;4.40;99.20;;;;;;5070123;28;20224;-72
2022/11/22 04:05:10;;;;;;;50.07;23.90;;;4.60;99.60;;;;;;5083085;28;20390;-72
2022/11/22 04:07:38;;;;;;;53.40;22.63;;;4.50;99.30;;;;;;5078229;28;20210;-72
2022/11/22 04:10:07;;;;;;;44.77;20.43;;;4.50;99.30;;;;;;5083896;28;20218;-72
2022/11/22 04:12:34;;;;;;;41.33;18.27;;;4.50;99.20;;;;;;5079364;28;20228;-73
2022/11/22 04:15:06;;;;;;;57.13;24.67;;;4.40;99.20;;;;;;5064986;28;20288;-73
2022/11/22 04:17:40;;;;;;;44.67;20.03;;;4.40;99.20;;;;;;5086613;28;20257;-73
2022/11/22 04:23:00;;;;;;;36.87;16.60;;;4.40;99.30;;;;;;5062179;28;20544;-73
2022/11/22 04:25:28;;;;;;;51.87;22.53;;;4.40;99.60;;;;;;5077519;28;20189;-73
2022/11/22 04:27:55;;;;;;;38.83;17.60;;;4.50;99.40;;;;;;5068354;28;20215;-73
2022/11/22 04:32:44;;;;;;;39.07;17.17;;;4.40;99.40;;;;;;5086723;28;20275;-74
2022/11/22 04:33:09;;;;;;;47.77;21.37;;;4.40;99.40;;;;;;5079127;28;20223;-73
2022/11/22 04:35:36;;;;;;;42.57;19.00;;;4.40;99.40;;;;;;5065256;28;20270;-74
2022/11/22 04:38:05;;;;;;;35.13;16.07;;;4.50;99.50;;;;;;5066111;28;20312;-72
2022/11/22 04:40:32;;;;;;;32.70;16.00;;;4.40;99.40;;;;;;5079957;28;20221;-74
2022/11/22 04:45:44;;;;;;;27.43;12.93;;;4.50;99.40;;;;;;5080531;28;20212;-73
2022/11/22 04:48:11;;;;;;;56.50;24.17;;;4.50;99.50;;;;;;5067262;28;20204;-73
2022/11/22 04:53:27;;;;;;;46.33;19.97;;;4.50;99.50;;;;;;5066725;28;20209;-72
2022/11/22 04:55:55;;;;;;;40.83;18.70;;;4.50;99.50;;;;;;5065796;28;20659;-72
2022/11/22 04:58:23;;;;;;;31.77;15.77;;;4.50;99.50;;;;;;5063582;28;20207;-72
2022/11/22 05:00:50;;;;;;;30.37;14.47;;;4.50;99.50;;;;;;5088344;28;20763;-73
2022/11/22 05:03:17;;;;;;;32.90;15.93;;;4.50;99.50;;;;;;5074493;28;20230;-73
2022/11/22 05:05:45;;;;;;;51.83;22.43;;;4.50;99.50;;;;;;5079660;28;20196;-72
2022/11/22 05:08:13;;;;;;;61.13;26.03;;;4.50;99.50;;;;;;5083765;28;20181;-73
2022/11/22 05:10:58;;;;;;;48.53;21.83;;;4.50;99.50;;;;;;5082877;28;20639;-72
2022/11/22 05:13:27;;;;;;;41.07;19.73;;;4.50;99.60;;;;;;5058249;28;20203;-73
2022/11/22 05:15:55;;;;;;;40.30;18.17;;;4.50;99.60;;;;;;5080610;28;20276;-73
2022/11/22 05:18:22;;;;;;;35.33;16.13;;;4.50;99.60;;;;;;5066405;28;20211;-73
2022/11/22 05:20:50;;;;;;;30.27;14.87;;;4.50;99.60;;;;;;5080529;28;20600;-73
2022/11/22 05:26:08;;;;;;;31.33;14.93;;;4.50;99.60;;;;;;5079515;28;20611;-72
2022/11/22 05:28:37;;;;;;;55.90;23.70;;;4.50;99.60;;;;;;5080387;28;20200;-73
2022/11/22 05:31:08;;;;;;;60.93;25.87;;;4.50;99.70;;;;;;5080411;28;20668;-72
2022/11/22 05:33:37;;;;;;;50.73;23.03;;;4.50;99.70;;;;;;5076619;28;20220;-73
2022/11/22 05:36:04;;;;;;;40.53;19.17;;;4.50;99.70;;;;;;5057878;28;20624;-73
2022/11/22 05:38:34;;;;;;;57.80;25.77;;;4.50;99.80;;;;;;5058341;28;20616;-72
2022/11/22 05:41:01;;;;;;;64.00;27.17;;;4.60;99.80;;;;;;5075701;28;20204;-73
2022/11/22 05:43:30;;;;;;;68.70;29.70;;;4.50;99.80;;;;;;5078747;28;20197;-74
2022/11/22 05:46:05;;;;;;;57.30;24.90;;;4.50;99.80;;;;;;5064492;28;20193;-73
2022/11/22 05:48:32;;;;;;;69.63;29.70;;;4.50;99.90;;;;;;5056945;28;20567;-73
2022/11/22 05:51:03;;;;;;;54.10;24.37;;;4.50;99.90;;;;;;5077714;28;20203;-73
2022/11/22 05:53:30;;;;;;;43.67;19.90;;;4.40;99.90;;;;;;5077194;28;20212;-72
2022/11/22 05:55:57;;;;;;;41.60;19.47;;;4.50;99.90;;;;;;5077065;28;20206;-72
2022/11/22 05:58:24;;;;;;;44.97;19.03;;;4.50;99.90;;;;;;5082404;28;20587;-73
2022/11/22 06:00:52;;;;;;;43.30;19.10;;;4.50;99.90;;;;;;5060935;28;20318;-73
2022/11/22 06:03:19;;;;;;;45.30;19.27;;;4.50;99.90;;;;;;5076311;28;20576;-73
2022/11/22 06:05:51;;;;;;;58.77;24.60;;;4.50;99.90;;;;;;5076616;28;20266;-73
2022/11/22 06:08:18;;;;;;;48.50;22.30;;;4.50;99.90;;;;;;5084224;28;20192;-73
2022/11/22 06:10:45;;;;;;;53.93;24.43;;;4.50;99.90;;;;;;5059531;28;20193;-72
2022/11/22 06:13:12;;;;;;;43.27;20.10;;;4.50;99.90;;;;;;5059365;28;20748;-73
2022/11/22 06:15:39;;;;;;;48.07;21.30;;;4.50;99.90;;;;;;5084242;28;20217;-73
2022/11/22 06:18:07;;;;;;;52.30;22.60;;;4.50;99.90;;;;;;5080080;28;20220;-73
2022/11/22 06:20:34;;;;;;;50.13;21.47;;;4.60;99.90;;;;;;5084918;28;20267;-73
2022/11/22 06:23:01;;;;;;;41.20;18.07;;;4.60;99.90;;;;;;5082513;28;20189;-72
2022/11/22 06:25:28;;;;;;;49.17;21.60;;;4.60;99.90;;;;;;5080440;28;20283;-72
2022/11/22 06:27:59;;;;;;;65.53;27.67;;;4.60;99.90;;;;;;5083298;28;20193;-73
2022/11/22 06:30:26;;;;;;;59.70;25.23;;;4.60;99.90;;;;;;5069533;28;20208;-73
2022/11/22 06:32:53;;;;;;;52.03;23.13;;;4.60;99.90;;;;;;5063273;28;20212;-73
2022/11/22 06:35:21;;;;;;;43.57;20.27;;;4.50;99.90;;;;;;5067245;28;20228;-73
2022/11/22 06:37:49;;;;;;;43.70;19.03;;;4.60;99.90;;;;;;5084293;28;20364;-72
2022/11/22 06:40:17;;;;;;;43.47;19.43;;;4.60;99.90;;;;;;5084174;28;20274;-72
2022/11/22 06:42:44;;;;;;;37.83;17.37;;;4.60;99.90;;;;;;5066349;28;20283;-72
2022/11/22 06:45:12;;;;;;;37.57;17.07;;;4.60;99.90;;;;;;5079778;28;20272;-72
2022/11/22 06:47:39;;;;;;;40.20;17.03;;;4.60;99.90;;;;;;5071923;28;20206;-73
2022/11/22 06:50:07;;;;;;;34.00;16.27;;;4.50;99.90;;;;;;5082523;28;20716;-73
2022/11/22 06:52:35;;;;;;;36.37;17.03;;;4.60;99.90;;;;;;5075167;28;20199;-73
2022/11/22 06:55:02;;;;;;;32.57;14.30;;;4.70;99.90;;;;;;5068078;28;20246;-73
2022/11/22 06:57:30;;;;;;;37.70;15.97;;;4.70;99.90;;;;;;5083966;28;20656;-73
2022/11/22 06:59:56;;;;;;;30.93;15.23;;;4.70;99.90;;;;;;5083265;28;20274;-73
2022/11/22 07:02:23;;;;;;;48.20;20.87;;;4.70;99.90;;;;;;5064106;28;20244;-73
2022/11/22 07:04:50;;;;;;;65.10;28.30;;;4.60;99.90;;;;;;5069397;28;20199;-73
2022/11/22 07:07:17;;;;;;;78.20;32.40;;;4.70;99.90;;;;;;5082816;28;20253;-73
2022/11/22 07:09:46;;;;;;;66.37;29.07;;;4.60;99.90;;;;;;5071407;28;20283;-72
2022/11/22 07:12:13;;;;;;;71.97;30.40;;;4.60;99.90;;;;;;5064310;28;20284;-73
2022/11/22 07:14:40;;;;;;;63.57;27.03;;;4.60;99.90;;;;;;5079423;28;20574;-73
2022/11/22 07:17:11;;;;;;;63.17;27.17;;;4.60;99.90;;;;;;5071646;28;20311;-73
2022/11/22 07:19:38;;;;;;;59.67;25.50;;;4.60;99.90;;;;;;5081223;28;20767;-72
2022/11/22 07:22:05;;;;;;;47.17;20.70;;;4.50;99.90;;;;;;5069011;28;20196;-72
2022/11/22 07:24:32;;;;;;;41.63;19.33;;;4.50;99.90;;;;;;5083052;28;20193;-71
2022/11/22 07:27:01;;;;;;;36.73;16.77;;;4.60;99.90;;;;;;5083460;28;20202;-72
2022/11/22 07:29:28;;;;;;;39.43;17.07;;;4.60;99.90;;;;;;5083581;28;20224;-72
2022/11/22 07:31:55;;;;;;;38.20;16.80;;;4.60;99.90;;;;;;5079504;28;20197;-72
2022/11/22 07:34:22;;;;;;;37.73;17.10;;;4.70;99.90;;;;;;5064138;28;20301;-71
2022/11/22 07:36:49;;;;;;;34.97;15.97;;;4.70;99.90;;;;;;5061897;28;20704;-72
2022/11/22 07:39:16;;;;;;;28.60;13.40;;;4.70;99.90;;;;;;5067169;28;20227;-73
2022/11/22 07:41:43;;;;;;;28.30;13.80;;;4.80;99.90;;;;;;5081276;28;20601;-72
2022/11/22 07:44:11;;;;;;;51.23;21.10;;;4.80;99.90;;;;;;5083019;28;20185;-72
2022/11/22 07:46:38;;;;;;;35.93;17.03;;;4.80;99.90;;;;;;5084422;28;20562;-73
2022/11/22 07:49:05;;;;;;;37.70;17.40;;;4.80;99.90;;;;;;5059816;28;20297;-72
2022/11/22 07:51:32;;;;;;;46.30;20.87;;;4.70;99.90;;;;;;5079329;28;20271;-73
2022/11/22 07:53:59;;;;;;;47.23;20.37;;;4.70;99.90;;;;;;5061388;28;20259;-73
2022/11/22 07:56:26;;;;;;;45.80;18.33;;;4.80;99.90;;;;;;5065475;28;20736;-72
2022/11/22 07:58:54;;;;;;;47.97;20.47;;;4.80;99.90;;;;;;5090510;28;20257;-73
2022/11/22 08:01:23;;;;;;;46.03;19.97;;;4.80;99.90;;;;;;5060877;28;20205;-71
2022/11/22 08:03:49;;;;;;;50.03;21.70;;;4.80;99.90;;;;;;5070365;28;20231;-73
2022/11/22 08:06:16;;;;;;;57.37;22.17;;;4.80;99.90;;;;;;5060690;28;20197;-73
2022/11/22 08:08:44;;;;;;;58.20;23.77;;;4.80;99.90;;;;;;5079408;28;20188;-72
2022/11/22 08:11:12;;;;;;;48.87;21.67;;;4.80;99.90;;;;;;5087013;28;20287;-72
2022/11/22 08:13:39;;;;;;;52.07;22.67;;;4.80;99.90;;;;;;5082403;28;20205;-73
2022/11/22 08:16:12;;;;;;;43.23;18.40;;;4.80;99.90;;;;;;5073883;28;20197;-72
2022/11/22 08:18:41;;;;;;;39.10;17.57;;;4.80;99.90;;;;;;5088203;28;20334;-72
2022/11/22 08:21:10;;;;;;;34.83;15.87;;;4.90;99.90;;;;;;5060830;28;20281;-73
2022/11/22 08:23:38;;;;;;;43.90;18.53;;;4.90;99.90;;;;;;5066284;28;20246;-73
2022/11/22 08:26:06;;;;;;;59.33;23.33;;;4.80;99.90;;;;;;5078680;28;20212;-73
2022/11/22 08:28:33;;;;;;;66.27;25.43;;;4.90;99.90;;;;;;5081069;28;20303;-73
2022/11/22 08:31:02;;;;;;;57.03;24.03;;;4.80;99.90;;;;;;5080052;28;20276;-73
2022/11/22 08:33:29;;;;;;;69.53;26.63;;;4.80;99.90;;;;;;5074380;28;20241;-72
2022/11/22 08:35:57;;;;;;;86.20;32.67;;;4.80;99.90;;;;;;5075280;28;20239;-72
2022/11/22 08:38:24;;;;;;;94.10;33.87;;;4.70;99.90;;;;;;5066520;28;20232;-72
2022/11/22 08:40:51;;;;;;;90.13;33.70;;;4.70;99.90;;;;;;5080729;28;20216;-73
2022/11/22 08:43:19;;;;;;;80.63;31.53;;;4.70;99.90;;;;;;5080362;28;20200;-72
2022/11/22 08:45:46;;;;;;;65.27;27.30;;;4.70;99.90;;;;;;5066756;28;20275;-73
2022/11/22 08:48:13;;;;;;;88.10;33.10;;;4.70;99.90;;;;;;5069104;28;20529;-73
2022/11/22 08:50:40;;;;;;;89.80;31.70;;;4.70;99.90;;;;;;5086191;28;20241;-73
2022/11/22 08:53:08;;;;;;;71.87;28.10;;;4.70;99.90;;;;;;5079833;28;20197;-74
2022/11/22 08:55:35;;;;;;;87.00;29.97;;;4.70;99.90;;;;;;5071430;28;20597;-72
2022/11/22 08:58:02;;;;;;;104.47;34.60;;;4.80;99.90;;;;;;5087137;28;20228;-73
2022/11/22 09:00:29;;;;;;;85.97;30.37;;;4.80;99.90;;;;;;5076965;28;20327;-72
2022/11/22 09:02:56;;;;;;;81.23;29.83;;;5.70;99.90;;;;;;5081931;28;20256;-72
2022/11/22 09:05:23;;;;;;;87.43;30.97;;;4.70;99.90;;;;;;5080404;28;20806;-73
2022/11/22 09:07:50;;;;;;;94.10;30.97;;;4.80;99.90;;;;;;5080216;28;20197;-72
2022/11/22 09:10:19;;;;;;;73.80;27.33;;;4.80;99.90;;;;;;5073246;28;20189;-73
2022/11/22 09:12:46;;;;;;;84.37;28.17;;;4.80;99.90;;;;;;5073996;28;20189;-73
2022/11/22 09:15:14;;;;;;;95.30;31.80;;;4.80;99.90;;;;;;5057866;28;20217;-72
2022/11/22 09:17:42;;;;;;;76.23;26.80;;;4.80;99.90;;;;;;5071822;28;20208;-72
2022/11/22 09:20:10;;;;;;;55.10;22.47;;;4.80;99.90;;;;;;5054245;28;20227;-72
2022/11/22 09:22:38;;;;;;;63.50;23.57;;;4.80;99.90;;;;;;5078561;28;20204;-73
2022/11/22 09:25:05;;;;;;;67.67;24.73;;;4.80;99.90;;;;;;5079434;28;20185;-73
2022/11/22 09:27:34;;;;;;;83.33;29.50;;;4.80;99.90;;;;;;5075157;28;20205;-73
2022/11/22 09:30:02;;;;;;;75.60;27.47;;;4.80;99.90;;;;;;5075266;28;20191;-73
2022/11/22 09:32:29;;;;;;;59.40;23.00;;;4.90;99.90;;;;;;5071540;28;20204;-73
2022/11/22 09:34:56;;;;;;;102.87;32.37;;;4.80;99.90;;;;;;5075857;28;20294;-72
2022/11/22 09:37:23;;;;;;;104.20;33.73;;;4.80;99.90;;;;;;5066621;28;20281;-72
2022/11/22 09:39:50;;;;;;;93.50;31.87;;;4.70;99.90;;;;;;5075268;28;20196;-72
2022/11/22 09:42:44;;;;;;;79.63;27.87;;;4.80;99.90;;;;;;5058918;28;20602;-71
2022/11/22 09:45:30;;;;;;;76.23;27.93;;;4.70;99.90;;;;;;5075933;28;20185;-73
2022/11/22 09:48:05;;;;;;;80.63;28.83;;;4.70;99.90;;;;;;5077068;28;20315;-74
2022/11/22 09:50:45;;;;;;;76.60;28.27;;;4.80;99.90;;;;;;5079174;28;20267;-71
2022/11/22 09:53:18;;;;;;;83.87;30.07;;;4.70;99.90;;;;;;5060030;28;20200;-72
2022/11/22 09:55:48;;;;;;;83.77;30.00;;;4.80;99.90;;;;;;5077832;28;20207;-73
2022/11/22 09:58:28;;;;;;;98.50;32.50;;;4.80;99.90;;;;;;5081463;28;20185;-72
2022/11/22 10:01:02;;;;;;;75.37;29.40;;;4.80;99.90;;;;;;5075948;28;20473;-73
2022/11/22 10:03:36;;;;;;;82.60;29.40;;;4.80;99.90;;;;;;5079265;28;20251;-73
2022/11/22 10:06:09;;;;;;;85.63;29.47;;;4.80;99.90;;;;;;5077666;28;20211;-73
2022/11/22 10:08:41;;;;;;;81.97;28.43;;;4.80;99.90;;;;;;5079111;28;20195;-73
2022/11/22 10:11:24;;;;;;;83.33;31.40;;;4.90;99.90;;;;;;5072806;28;20723;-73
2022/11/22 10:13:59;;;;;;;65.17;25.57;;;4.80;99.90;;;;;;5078300;28;20232;-73
2022/11/22 10:16:33;;;;;;;71.60;26.87;;;4.80;99.90;;;;;;5063854;28;20192;-72
2022/11/22 10:19:05;;;;;;;69.40;26.57;;;4.90;99.90;;;;;;5085768;28;20266;-74
2022/11/22 10:21:32;;;;;;;86.80;31.50;;;4.90;99.90;;;;;;5076605;28;20244;-72
2022/11/22 10:23:59;;;;;;;80.60;29.13;;;4.90;99.90;;;;;;5082787;28;20280;-72
2022/11/22 10:26:31;;;;;;;86.40;31.47;;;4.90;99.90;;;;;;5059903;28;20610;-73
2022/11/22 10:29:11;;;;;;;86.23;32.23;;;4.80;99.90;;;;;;5075871;28;20224;-73
2022/11/22 10:31:44;;;;;;;83.30;29.57;;;4.80;99.90;;;;;;5085368;28;20204;-73
2022/11/22 10:34:20;;;;;;;84.37;30.23;;;4.80;99.90;;;;;;5076721;28;20211;-73
2022/11/22 10:36:55;;;;;;;80.83;29.97;;;4.80;99.90;;;;;;5083314;28;20192;-73
2022/11/22 10:39:44;;;;;;;80.60;29.30;;;4.70;99.90;;;;;;5060777;28;20211;-73
2022/11/22 10:42:50;;;;;;;78.27;28.97;;;4.60;99.90;;;;;;5059240;28;20679;-73
2022/11/22 10:45:24;;;;;;;65.37;25.17;;;4.60;99.90;;;;;;5055381;28;20220;-74
2022/11/22 10:48:03;;;;;;;77.13;28.67;;;4.60;99.90;;;;;;5060229;28;20193;-74
2022/11/22 10:50:39;;;;;;;78.23;29.80;;;4.60;99.90;;;;;;5057521;28;20199;-70
2022/11/22 10:53:15;;;;;;;86.63;29.17;;;4.60;99.90;;;;;;5078218;28;20210;-72
2022/11/22 10:55:50;;;;;;;86.67;29.73;;;4.50;99.90;;;;;;5078731;28;20780;-73
2022/11/22 10:58:27;;;;;;;89.93;30.83;;;4.50;99.90;;;;;;5080701;28;20527;-72
2022/11/22 11:01:10;;;;;;;77.83;27.20;;;4.50;99.90;;;;;;5062527;28;20196;-73
2022/11/22 11:03:41;;;;;;;89.23;29.93;;;4.50;99.90;;;;;;5059026;28;20220;-73
2022/11/22 11:06:14;;;;;;;83.10;29.03;;;4.50;99.90;;;;;;5077850;28;20188;-73
2022/11/22 11:08:45;;;;;;;72.33;27.40;;;4.50;99.90;;;;;;5085849;28;20479;-72
2022/11/22 11:11:13;;;;;;;74.33;26.40;;;4.50;99.90;;;;;;5055429;28;20315;-73
2022/11/22 11:13:46;;;;;;;67.30;26.63;;;4.60;99.90;;;;;;5084726;28;20201;-73
2022/11/22 11:16:19;;;;;;;59.23;22.20;;;4.60;99.90;;;;;;5063016;28;20197;-72
2022/11/22 11:18:51;;;;;;;69.87;24.83;;;4.60;99.90;;;;;;5065338;28;20272;-73
2022/11/22 11:21:18;;;;;;;62.50;23.33;;;4.70;99.90;;;;;;5080963;28;20231;-72
2022/11/22 11:23:46;;;;;;;77.50;26.93;;;4.70;99.90;;;;;;5086909;28;20269;-73
2022/11/22 11:26:26;;;;;;;84.33;28.20;;;4.80;99.90;;;;;;5064241;28;20204;-73
2022/11/22 11:29:30;;;;;;;67.63;25.83;;;4.80;99.90;;;;;;5080355;28;20222;-72
2022/11/22 11:32:11;;;;;;;78.83;28.43;;;4.80;99.90;;;;;;5084712;28;20220;-72
2022/11/22 11:34:47;;;;;;;92.97;33.27;;;4.80;99.90;;;;;;5078838;28;20212;-73
2022/11/22 11:37:23;;;;;;;86.63;30.37;;;4.80;99.90;;;;;;5084950;28;20181;-73
2022/11/22 11:39:50;;;;;;;70.27;25.97;;;4.80;99.90;;;;;;5082471;28;20249;-72
2022/11/22 11:42:28;;;;;;;82.27;28.33;;;4.80;99.90;;;;;;5080293;28;20261;-73
2022/11/22 11:45:20;;;;;;;68.87;26.40;;;4.80;99.90;;;;;;5065549;28;20668;-73
2022/11/22 11:47:48;;;;;;;64.20;23.77;;;4.80;99.90;;;;;;5081943;28;20547;-73
2022/11/22 11:50:20;;;;;;;62.27;22.83;;;4.80;99.90;;;;;;5081433;28;20185;-73
2022/11/22 11:52:53;;;;;;;68.07;26.40;;;4.80;99.90;;;;;;5065554;28;20504;-73
2022/11/22 11:55:21;;;;;;;77.53;26.07;;;4.80;99.90;;;;;;5059408;28;20532;-73
2022/11/22 11:57:49;;;;;;;56.50;21.80;;;4.90;99.90;;;;;;5081659;28;20611;-73
2022/11/22 12:00:23;;;;;;;70.07;24.60;;;4.90;99.90;;;;;;5077226;28;20185;-73
2022/11/22 12:02:58;;;;;;;61.40;22.70;;;4.90;99.90;;;;;;5064430;28;21051;-74
2022/11/22 12:05:28;;;;;;;49.87;19.83;;;4.90;99.90;;;;;;5075567;28;20286;-74
2022/11/22 12:07:55;;;;;;;48.73;19.17;;;4.90;99.90;;;;;;5083925;28;20188;-73
2022/11/22 12:10:31;;;;;;;48.83;18.90;;;4.90;99.90;;;;;;5085243;28;20271;-72
2022/11/22 12:13:03;;;;;;;80.17;27.23;;;4.90;99.90;;;;;;5080103;28;20567;-73
2022/11/22 12:15:40;;;;;;;63.57;23.43;;;5.00;99.90;;;;;;5061489;28;20212;-73
2022/11/22 12:18:24;;;;;;;58.13;21.10;;;5.00;99.90;;;;;;5077192;28;20188;-75
2022/11/22 12:20:58;;;;;;;53.83;21.30;;;5.00;99.90;;;;;;5059845;28;20196;-74
2022/11/22 12:23:35;;;;;;;55.63;20.40;;;5.00;99.90;;;;;;5077926;28;20193;-74
2022/11/22 12:26:02;;;;;;;75.13;26.73;;;5.00;99.90;;;;;;5083610;28;20268;-73
2022/11/22 12:28:30;;;;;;;70.17;24.37;;;5.00;99.90;;;;;;5062369;28;20223;-73
2022/11/22 12:31:05;;;;;;;74.53;27.80;;;5.00;99.90;;;;;;5079473;28;20189;-73
2022/11/22 12:33:36;;;;;;;57.57;23.07;;;5.00;99.90;;;;;;5081368;28;20675;-73
2022/11/22 12:36:08;;;;;;;47.57;19.70;;;5.00;99.90;;;;;;5088009;28;20325;-73
2022/11/22 12:38:39;;;;;;;52.07;19.07;;;5.10;99.90;;;;;;5087748;28;20831;-74
2022/11/22 12:41:11;;;;;;;40.73;16.50;;;5.10;99.90;;;;;;5083031;28;20193;-74
2022/11/22 12:43:43;;;;;;;56.70;22.60;;;5.10;99.90;;;;;;5064574;28;20322;-74
2022/11/22 12:46:16;;;;;;;61.80;22.50;;;5.10;99.90;;;;;;5062294;28;20205;-73
2022/11/22 12:48:48;;;;;;;45.33;18.53;;;5.20;99.90;;;;;;5061726;28;20193;-73
2022/11/22 12:51:23;;;;;;;37.87;15.83;;;5.10;99.90;;;;;;5078736;28;20802;-73
2022/11/22 12:53:52;;;;;;;42.70;18.10;;;5.20;99.90;;;;;;5074830;28;20193;-74
2022/11/22 12:56:26;;;;;;;71.67;25.80;;;5.30;99.90;;;;;;5084432;28;20708;-73
2022/11/22 12:59:00;;;;;;;63.07;24.03;;;5.00;99.90;;;;;;5082667;28;20270;-73